createdAt,value
2023-04-12T00:00:54.614Z,6.88
2023-04-12T00:03:22.264Z,6.88
2023-04-12T00:05:54.660Z,6.88
2023-04-12T00:08:33.524Z,6.91
2023-04-12T00:11:02.113Z,6.89
2023-04-12T00:13:29.827Z,6.87
2023-04-12T00:15:56.578Z,6.86
2023-04-12T00:18:25.262Z,6.80
2023-04-12T00:20:52.566Z,6.79
2023-04-12T00:23:19.105Z,6.81
2023-04-12T00:25:45.909Z,6.81
2023-04-12T00:28:12.648Z,6.75
2023-04-12T00:30:41.236Z,6.72
2023-04-12T00:33:08.096Z,6.75
2023-04-12T00:35:34.945Z,6.70
2023-04-12T00:38:03.797Z,6.67
2023-04-12T00:40:30.771Z,6.64
2023-04-12T00:42:57.781Z,6.61
2023-04-12T00:45:24.372Z,6.58
2023-04-12T00:47:51.093Z,6.52
2023-04-12T00:50:18.155Z,6.47
2023-04-12T00:52:45.179Z,6.46
2023-04-12T00:55:11.916Z,6.43
2023-04-12T00:57:40.130Z,6.43
2023-04-12T01:00:12.722Z,6.41
2023-04-12T01:02:42.734Z,6.43
2023-04-12T01:05:09.699Z,6.39
2023-04-12T01:08:05.140Z,6.34
2023-04-12T01:10:57.675Z,6.30
2023-04-12T01:13:44.969Z,6.31
2023-04-12T01:16:26.442Z,6.28
2023-04-12T01:18:59.535Z,6.25
2023-04-12T01:21:56.896Z,6.20
2023-04-12T01:24:38.848Z,6.19
2023-04-12T01:27:13.778Z,6.14
2023-04-12T01:29:41.538Z,6.18
2023-04-12T01:32:12.300Z,6.18
2023-04-12T01:34:40.377Z,6.19
2023-04-12T01:37:07.541Z,6.19
2023-04-12T01:39:34.129Z,6.18
2023-04-12T01:42:00.896Z,6.14
2023-04-12T01:44:27.541Z,6.10
2023-04-12T01:46:54.471Z,6.07
2023-04-12T01:49:24.006Z,6.02
2023-04-12T01:52:01.816Z,6.03
2023-04-12T01:54:31.392Z,6.06
2023-04-12T01:57:01.870Z,5.97
2023-04-12T01:59:45.498Z,5.95
2023-04-12T02:02:13.777Z,5.94
2023-04-12T02:04:42.905Z,5.92
2023-04-12T02:07:09.642Z,5.91
2023-04-12T02:09:38.389Z,5.91
2023-04-12T02:12:06.593Z,5.95
2023-04-12T02:14:33.432Z,5.92
2023-04-12T02:17:02.401Z,5.95
2023-04-12T02:19:29.279Z,6.00
2023-04-12T02:21:55.897Z,6.05
2023-04-12T02:24:22.544Z,6.07
2023-04-12T02:26:51.937Z,6.13
2023-04-12T02:29:18.539Z,6.12
2023-04-12T02:31:45.118Z,6.10
2023-04-12T02:34:13.343Z,6.08
2023-04-12T02:36:40.005Z,6.09
2023-04-12T02:39:07.818Z,6.11
2023-04-12T02:41:34.710Z,6.10
2023-04-12T02:44:01.680Z,6.11
2023-04-12T02:46:28.600Z,6.04
2023-04-12T02:48:55.384Z,5.99
2023-04-12T02:51:23.077Z,5.93
2023-04-12T02:53:49.598Z,5.90
2023-04-12T02:56:19.325Z,5.89
2023-04-12T02:58:46.377Z,5.83
2023-04-12T03:01:13.206Z,5.74
2023-04-12T03:03:40.833Z,5.69
2023-04-12T03:06:09.342Z,5.55
2023-04-12T03:08:36.191Z,5.51
2023-04-12T03:11:02.796Z,5.45
2023-04-12T03:13:29.363Z,5.50
2023-04-12T03:15:58.664Z,5.57
2023-04-12T03:18:25.794Z,5.57
2023-04-12T03:20:54.857Z,5.53
2023-04-12T03:23:21.932Z,5.46
2023-04-12T03:25:48.500Z,5.43
2023-04-12T03:28:15.073Z,5.46
2023-04-12T03:30:41.643Z,5.51
2023-04-12T03:33:08.409Z,5.53
2023-04-12T03:35:35.102Z,5.59
2023-04-12T03:38:01.810Z,5.64
2023-04-12T03:40:28.362Z,5.77
2023-04-12T03:42:54.918Z,5.76
2023-04-12T03:45:21.487Z,5.74
2023-04-12T03:47:48.293Z,5.74
2023-04-12T03:50:15.066Z,5.65
2023-04-12T03:52:41.678Z,5.61
2023-04-12T03:55:08.770Z,5.56
2023-04-12T03:57:35.944Z,5.46
2023-04-12T04:00:03.031Z,5.37
2023-04-12T04:02:31.816Z,5.28
2023-04-12T04:04:58.691Z,5.16
2023-04-12T04:07:25.777Z,5.09
2023-04-12T04:09:54.584Z,5.08
2023-04-12T04:12:21.154Z,5.10
2023-04-12T04:14:47.680Z,5.07
2023-04-12T04:17:14.319Z,4.98
2023-04-12T04:19:41.670Z,4.91
2023-04-12T04:22:10.017Z,4.84
2023-04-12T04:24:39.175Z,4.81
2023-04-12T04:27:06.465Z,4.79
2023-04-12T04:29:33.825Z,4.77
2023-04-12T04:32:01.646Z,4.74
2023-04-12T04:34:28.625Z,4.73
2023-04-12T04:36:55.412Z,4.65
2023-04-12T04:39:21.954Z,4.63
2023-04-12T04:41:54.530Z,4.62
2023-04-12T04:44:21.861Z,4.52
2023-04-12T04:46:49.002Z,4.64
2023-04-12T04:49:15.777Z,4.67
2023-04-12T04:51:42.318Z,4.68
2023-04-12T04:54:08.904Z,4.72
2023-04-12T04:56:35.465Z,4.77
2023-04-12T04:59:02.835Z,4.89
2023-04-12T05:01:29.682Z,5.00
2023-04-12T05:03:56.386Z,5.10
2023-04-12T05:06:23.484Z,5.19
2023-04-12T05:08:50.239Z,5.28
2023-04-12T05:11:16.848Z,5.43
2023-04-12T05:13:43.419Z,5.58
2023-04-12T05:16:11.430Z,5.70
2023-04-12T05:18:38.272Z,5.85
2023-04-12T05:21:05.465Z,6.02
2023-04-12T05:23:43.595Z,6.14
2023-04-12T05:26:10.558Z,6.25
2023-04-12T05:28:37.329Z,6.33
2023-04-12T05:31:05.724Z,6.43
2023-04-12T05:33:34.475Z,6.53
2023-04-12T05:36:01.114Z,6.73
2023-04-12T05:38:27.768Z,6.88
2023-04-12T05:40:54.449Z,6.95
2023-04-12T05:43:21.103Z,6.97
2023-04-12T05:45:47.722Z,6.97
2023-04-12T05:48:14.652Z,6.97
2023-04-12T05:50:41.249Z,7.04
2023-04-12T05:53:08.564Z,7.12
2023-04-12T05:55:37.745Z,7.24
2023-04-12T05:58:04.684Z,7.38
2023-04-12T06:00:31.539Z,7.53
2023-04-12T06:02:58.692Z,7.61
2023-04-12T06:05:25.699Z,7.66
2023-04-12T06:07:52.292Z,7.67
2023-04-12T06:10:19.046Z,7.70
2023-04-12T06:12:45.656Z,7.73
2023-04-12T06:15:12.255Z,7.79
2023-04-12T06:17:39.126Z,7.87
2023-04-12T06:20:09.323Z,7.93
2023-04-12T06:22:36.754Z,8.05
2023-04-12T06:25:04.017Z,8.16
2023-04-12T06:27:31.067Z,8.24
2023-04-12T06:29:58.298Z,8.30
2023-04-12T06:32:25.232Z,8.41
2023-04-12T06:34:51.881Z,8.45
2023-04-12T06:37:18.606Z,8.46
2023-04-12T06:39:45.326Z,8.52
2023-04-12T06:42:14.408Z,8.54
2023-04-12T06:44:41.493Z,8.54
2023-04-12T06:47:08.384Z,8.57
2023-04-12T06:49:35.286Z,8.57
2023-04-12T06:52:01.954Z,8.57
2023-04-12T06:54:28.637Z,8.58
2023-04-12T06:56:56.449Z,8.58
2023-04-12T06:59:23.286Z,8.60
2023-04-12T07:01:49.882Z,8.64
2023-04-12T07:04:17.077Z,8.70
2023-04-12T07:06:43.792Z,8.75
2023-04-12T07:09:10.386Z,8.82
2023-04-12T07:11:37.048Z,8.86
2023-04-12T07:14:03.726Z,8.93
2023-04-12T07:16:31.640Z,8.97
2023-04-12T07:18:59.905Z,8.99
2023-04-12T07:21:27.639Z,9.05
2023-04-12T07:23:55.010Z,9.17
2023-04-12T07:26:21.830Z,9.27
2023-04-12T07:28:48.578Z,9.36
2023-04-12T07:31:15.545Z,9.39
2023-04-12T07:33:43.360Z,9.46
2023-04-12T07:36:12.200Z,9.53
2023-04-12T07:38:38.879Z,9.60
2023-04-12T07:41:05.533Z,9.63
2023-04-12T07:43:32.242Z,9.70
2023-04-12T07:45:59.564Z,9.75
2023-04-12T07:48:26.352Z,9.83
2023-04-12T07:50:52.935Z,9.88
2023-04-12T07:53:22.289Z,10.02
2023-04-12T07:55:49.740Z,10.12
2023-04-12T07:58:17.359Z,10.22
2023-04-12T08:00:44.613Z,10.34
2023-04-12T08:03:13.058Z,10.40
2023-04-12T08:05:40.747Z,10.51
2023-04-12T08:08:08.443Z,10.65
2023-04-12T08:10:35.020Z,10.81
2023-04-12T08:13:01.591Z,10.95
2023-04-12T08:15:29.193Z,11.09
2023-04-12T08:17:55.860Z,11.33
2023-04-12T08:20:22.498Z,11.50
2023-04-12T08:22:49.689Z,11.61
2023-04-12T08:25:16.454Z,11.72
2023-04-12T08:27:43.603Z,11.84
2023-04-12T08:30:11.687Z,11.93
2023-04-12T08:32:38.572Z,12.03
2023-04-12T08:35:06.411Z,12.09
2023-04-12T08:37:33.856Z,12.07
2023-04-12T08:40:04.789Z,12.14
2023-04-12T08:42:32.596Z,12.18
2023-04-12T08:44:59.388Z,12.17
2023-04-12T08:47:26.107Z,12.20
2023-04-12T08:49:52.801Z,12.29
2023-04-12T08:52:19.634Z,12.42
2023-04-12T08:54:46.276Z,12.62
2023-04-12T08:57:13.811Z,12.84
2023-04-12T08:59:43.717Z,12.97
2023-04-12T09:02:10.653Z,13.06
2023-04-12T09:04:48.884Z,13.21
2023-04-12T09:07:16.126Z,13.40
2023-04-12T09:09:42.691Z,13.52
2023-04-12T09:12:09.949Z,13.59
2023-04-12T09:14:38.125Z,13.65
2023-04-12T09:17:05.414Z,13.73
2023-04-12T09:19:34.354Z,13.81
2023-04-12T09:22:01.803Z,13.92
2023-04-12T09:24:29.630Z,14.06
2023-04-12T09:27:02.912Z,14.17
2023-04-12T09:29:30.392Z,14.20
2023-04-12T09:32:05.470Z,14.29
2023-04-12T09:34:33.659Z,14.46
2023-04-12T09:37:00.239Z,14.52
2023-04-12T09:39:35.985Z,14.62
2023-04-12T09:42:25.558Z,14.79
2023-04-12T09:44:58.680Z,14.90
2023-04-12T09:47:39.537Z,14.94
2023-04-12T09:50:10.098Z,14.88
2023-04-12T09:52:38.498Z,14.60
2023-04-12T09:55:09.723Z,14.50
2023-04-12T09:57:40.586Z,14.60
2023-04-12T10:00:14.240Z,14.84
2023-04-12T10:02:43.936Z,15.09
2023-04-12T10:05:14.859Z,15.26
2023-04-12T10:07:42.441Z,15.34
2023-04-12T10:10:13.051Z,15.41
2023-04-12T10:12:41.492Z,15.35
2023-04-12T10:15:13.394Z,15.47
2023-04-12T10:17:46.979Z,15.50
2023-04-12T10:20:17.079Z,15.52
2023-04-12T10:22:46.835Z,15.61
2023-04-12T10:25:18.683Z,15.73
2023-04-12T10:27:46.805Z,15.77
2023-04-12T10:30:27.655Z,15.77
2023-04-12T10:33:03.735Z,15.96
2023-04-12T10:35:49.267Z,16.17
2023-04-12T10:38:16.323Z,16.36
2023-04-12T10:41:07.974Z,16.38
2023-04-12T10:43:34.750Z,16.48
2023-04-12T10:46:05.223Z,16.52
2023-04-12T10:48:37.588Z,16.51
2023-04-12T10:51:28.709Z,16.22
2023-04-12T10:54:07.344Z,16.22
2023-04-12T10:56:41.055Z,16.28
2023-04-12T10:59:09.290Z,16.26
2023-04-12T11:01:38.655Z,16.25
2023-04-12T11:04:07.097Z,16.47
2023-04-12T11:06:52.977Z,16.50
2023-04-12T11:09:38.750Z,16.43
2023-04-12T11:12:05.356Z,16.44
2023-04-12T11:14:34.699Z,16.53
2023-04-12T11:17:13.579Z,16.62
2023-04-12T11:19:42.220Z,16.67
2023-04-12T11:22:14.229Z,16.70
2023-04-12T11:24:43.783Z,16.70
2023-04-12T11:27:10.988Z,16.81
2023-04-12T11:29:37.846Z,16.88
2023-04-12T11:32:07.261Z,16.93
2023-04-12T11:34:35.166Z,16.95
2023-04-12T11:37:08.197Z,16.98
2023-04-12T11:39:37.011Z,17.12
2023-04-12T11:42:04.093Z,17.15
2023-04-12T11:44:47.858Z,17.14
2023-04-12T11:47:22.317Z,17.03
2023-04-12T11:49:51.250Z,17.07
2023-04-12T11:52:20.086Z,17.09
2023-04-12T11:54:48.524Z,17.13
2023-04-12T11:57:18.120Z,17.19
2023-04-12T11:59:49.217Z,17.26
2023-04-12T12:02:23.594Z,17.40
2023-04-12T12:04:52.130Z,17.57
2023-04-12T12:07:21.524Z,17.84
2023-04-12T12:09:50.162Z,18.03
2023-04-12T12:12:16.941Z,18.23
2023-04-12T12:14:47.305Z,18.35
2023-04-12T12:17:16.238Z,18.50
2023-04-12T12:19:45.440Z,18.52
2023-04-12T12:22:12.288Z,18.56
2023-04-12T12:24:45.979Z,18.70
2023-04-12T12:27:13.436Z,18.76
2023-04-12T12:29:40.477Z,18.92
2023-04-12T12:32:12.025Z,19.19
2023-04-12T12:34:38.660Z,19.43
2023-04-12T12:37:08.451Z,19.80
2023-04-12T12:39:36.364Z,20.24
2023-04-12T12:42:05.729Z,20.52
2023-04-12T12:44:36.354Z,20.87
2023-04-12T12:47:13.542Z,20.99
2023-04-12T12:49:41.520Z,21.20
2023-04-12T12:52:08.116Z,21.69
2023-04-12T12:54:40.294Z,21.93
2023-04-12T12:57:07.508Z,22.06
2023-04-12T12:59:34.090Z,22.55
2023-04-12T13:02:00.785Z,22.92
2023-04-12T13:04:27.590Z,23.16
2023-04-12T13:06:54.713Z,23.48
2023-04-12T13:09:21.251Z,23.70
2023-04-12T13:11:47.829Z,24.11
2023-04-12T13:14:14.414Z,24.61
2023-04-12T13:16:41.224Z,25.34
2023-04-12T13:19:07.846Z,26.04
2023-04-12T13:21:34.478Z,26.55
2023-04-12T13:24:01.066Z,27.11
2023-04-12T13:26:27.732Z,27.57
2023-04-12T13:28:55.935Z,28.01
2023-04-12T13:31:22.763Z,28.26
2023-04-12T13:33:49.343Z,28.64
2023-04-12T13:36:16.082Z,28.97
2023-04-12T13:38:42.631Z,29.07
2023-04-12T13:41:09.218Z,29.23
2023-04-12T13:43:35.842Z,29.50
2023-04-12T13:46:02.483Z,29.87
2023-04-12T13:48:29.150Z,30.38
2023-04-12T13:50:56.496Z,30.95
2023-04-12T13:53:23.109Z,31.08
2023-04-12T13:55:50.292Z,31.33
2023-04-12T13:58:18.445Z,30.92
2023-04-12T14:00:45.014Z,30.52
2023-04-12T14:03:11.655Z,30.12
2023-04-12T14:05:38.420Z,29.93
2023-04-12T14:08:05.020Z,29.83
2023-04-12T14:10:31.667Z,30.20
2023-04-12T14:12:58.320Z,30.56
2023-04-12T14:15:24.917Z,30.70
2023-04-12T14:17:51.761Z,30.13
2023-04-12T14:20:19.820Z,29.66
2023-04-12T14:22:46.439Z,29.29
2023-04-12T14:25:13.058Z,29.00
2023-04-12T14:27:39.666Z,29.37
2023-04-12T14:30:07.382Z,29.18
2023-04-12T14:32:34.430Z,29.11
2023-04-12T14:35:01.162Z,28.83
2023-04-12T14:37:27.789Z,29.28
2023-04-12T14:39:54.617Z,29.02
2023-04-12T14:42:21.619Z,28.83
2023-04-12T14:44:48.205Z,28.82
2023-04-12T14:47:14.823Z,28.30
2023-04-12T14:49:41.499Z,27.73
2023-04-12T14:52:08.108Z,28.10
2023-04-12T14:54:34.666Z,28.78
2023-04-12T14:57:01.614Z,28.90
2023-04-12T14:59:28.304Z,29.48
2023-04-12T15:01:55.117Z,29.63
2023-04-12T15:04:21.992Z,30.24
2023-04-12T15:06:48.709Z,30.31
2023-04-12T15:09:17.723Z,30.32
2023-04-12T15:11:46.339Z,30.38
2023-04-12T15:14:18.062Z,30.37
2023-04-12T15:16:46.521Z,29.91
2023-04-12T15:19:19.228Z,29.29
2023-04-12T15:21:47.174Z,29.08
2023-04-12T15:24:13.741Z,28.76
2023-04-12T15:26:40.319Z,28.21
2023-04-12T15:29:09.342Z,28.61
2023-04-12T15:31:35.997Z,29.21
2023-04-12T15:34:02.600Z,29.64
2023-04-12T15:36:33.651Z,29.73
2023-04-12T15:39:01.193Z,29.69
2023-04-12T15:41:33.681Z,29.50
2023-04-12T15:44:00.370Z,28.61
2023-04-12T15:46:27.057Z,28.11
2023-04-12T15:48:53.661Z,28.14
2023-04-12T15:51:20.287Z,27.80
2023-04-12T15:53:46.864Z,27.77
2023-04-12T15:56:15.411Z,27.73
2023-04-12T15:58:43.210Z,27.65
2023-04-12T16:01:09.838Z,27.19
2023-04-12T16:03:37.241Z,26.32
2023-04-12T16:06:05.126Z,25.94
2023-04-12T16:08:31.865Z,25.99
2023-04-12T16:10:58.807Z,25.91
2023-04-12T16:13:25.450Z,25.20
2023-04-12T16:15:52.415Z,24.19
2023-04-12T16:18:19.005Z,23.79
2023-04-12T16:20:45.643Z,23.39
2023-04-12T16:23:12.900Z,22.65
2023-04-12T16:25:40.345Z,21.82
2023-04-12T16:28:07.828Z,21.39
2023-04-12T16:30:35.137Z,20.88
2023-04-12T16:33:02.090Z,20.70
2023-04-12T16:35:28.803Z,20.43
2023-04-12T16:37:55.493Z,20.16
2023-04-12T16:40:22.119Z,19.76
2023-04-12T16:42:48.694Z,19.42
2023-04-12T16:45:15.500Z,19.06
2023-04-12T16:47:42.437Z,18.71
2023-04-12T16:50:09.630Z,18.38
2023-04-12T16:52:36.883Z,18.04
2023-04-12T16:55:04.159Z,17.82
2023-04-12T16:57:31.173Z,17.62
2023-04-12T16:59:57.839Z,17.47
2023-04-12T17:02:25.166Z,17.21
2023-04-12T17:04:52.092Z,16.93
2023-04-12T17:07:19.933Z,16.74
2023-04-12T17:09:46.581Z,16.56
2023-04-12T17:12:13.285Z,16.43
2023-04-12T17:14:39.940Z,16.22
2023-04-12T17:17:07.030Z,16.17
2023-04-12T17:19:33.961Z,16.16
2023-04-12T17:22:00.762Z,15.99
2023-04-12T17:24:28.655Z,15.86
2023-04-12T17:26:55.345Z,15.59
2023-04-12T17:29:22.543Z,15.39
2023-04-12T17:31:51.808Z,15.21
2023-04-12T17:34:20.929Z,15.06
2023-04-12T17:36:49.184Z,14.81
2023-04-12T17:39:16.270Z,14.62
2023-04-12T17:41:42.997Z,14.15
2023-04-12T17:44:09.605Z,13.77
2023-04-12T17:46:36.272Z,13.67
2023-04-12T17:49:05.808Z,13.67
2023-04-12T17:51:33.335Z,13.62
2023-04-12T17:54:00.893Z,13.54
2023-04-12T17:56:28.134Z,13.39
2023-04-12T17:58:55.229Z,13.24
2023-04-12T18:01:22.345Z,13.24
2023-04-12T18:03:49.466Z,13.03
2023-04-12T18:06:18.378Z,12.73
2023-04-12T18:08:45.245Z,12.46
2023-04-12T18:11:13.141Z,12.35
2023-04-12T18:13:39.744Z,12.13
2023-04-12T18:16:07.171Z,11.91
2023-04-12T18:18:33.979Z,11.81
2023-04-12T18:21:03.795Z,11.74
2023-04-12T18:23:30.546Z,11.61
2023-04-12T18:25:57.239Z,11.50
2023-04-12T18:28:24.895Z,11.39
2023-04-12T18:30:51.456Z,11.27
2023-04-12T18:33:18.058Z,11.13
2023-04-12T18:35:44.899Z,10.92
2023-04-12T18:38:13.501Z,10.79
2023-04-12T18:40:40.128Z,10.61
2023-04-12T18:43:08.082Z,10.54
2023-04-12T18:45:39.737Z,10.50
2023-04-12T18:48:06.606Z,10.43
2023-04-12T18:50:33.188Z,10.37
2023-04-12T18:52:59.737Z,10.39
2023-04-12T18:55:26.365Z,10.25
2023-04-12T18:57:52.922Z,10.16
2023-04-12T19:00:19.781Z,10.13
2023-04-12T19:02:46.374Z,9.97
2023-04-12T19:05:14.828Z,9.78
2023-04-12T19:07:41.911Z,9.40
2023-04-12T19:10:09.214Z,9.22
2023-04-12T19:12:36.035Z,9.26
2023-04-12T19:15:02.623Z,9.29
2023-04-12T19:17:29.331Z,9.26
2023-04-12T19:19:56.811Z,9.22
2023-04-12T19:22:27.442Z,9.16
2023-04-12T19:24:54.043Z,9.06
2023-04-12T19:27:22.954Z,8.90
2023-04-12T19:29:51.551Z,8.88
2023-04-12T19:32:19.169Z,8.88
2023-04-12T19:34:46.973Z,8.81
2023-04-12T19:37:14.049Z,8.79
2023-04-12T19:39:41.198Z,8.75
2023-04-12T19:42:07.907Z,8.48
2023-04-12T19:44:34.602Z,8.46
2023-04-12T19:47:01.625Z,8.42
2023-04-12T19:49:28.899Z,8.38
2023-04-12T19:51:55.533Z,8.38
2023-04-12T19:54:25.735Z,8.38
2023-04-12T19:56:53.404Z,8.33
2023-04-12T19:59:21.064Z,8.27
2023-04-12T20:01:48.220Z,8.26
2023-04-12T20:04:16.486Z,8.23
2023-04-12T20:06:43.911Z,8.15
2023-04-12T20:09:13.218Z,8.12
2023-04-12T20:11:41.597Z,8.12
2023-04-12T20:14:08.298Z,8.11
2023-04-12T20:16:38.582Z,8.04
2023-04-12T20:19:05.379Z,7.95
2023-04-12T20:21:34.181Z,7.87
2023-04-12T20:24:04.149Z,7.87
2023-04-12T20:26:34.223Z,7.87
2023-04-12T20:29:01.293Z,7.91
2023-04-12T20:31:28.541Z,7.91
2023-04-12T20:33:56.993Z,7.84
2023-04-12T20:36:26.424Z,7.69
2023-04-12T20:38:53.823Z,7.57
2023-04-12T20:41:20.441Z,7.56
2023-04-12T20:43:48.116Z,7.57
2023-04-12T20:46:17.148Z,7.51
2023-04-12T20:48:45.099Z,7.44
2023-04-12T20:51:13.669Z,7.30
2023-04-12T20:53:40.980Z,7.23
2023-04-12T20:56:08.289Z,7.17
2023-04-12T20:58:35.221Z,7.06
2023-04-12T21:01:04.982Z,6.94
2023-04-12T21:03:32.560Z,6.85
2023-04-12T21:06:02.566Z,6.76
2023-04-12T21:08:30.913Z,6.68
2023-04-12T21:10:58.792Z,6.65
2023-04-12T21:13:26.437Z,6.62
2023-04-12T21:15:53.896Z,6.61
2023-04-12T21:18:21.054Z,6.56
2023-04-12T21:20:48.653Z,6.54
2023-04-12T21:23:20.736Z,6.53
2023-04-12T21:25:48.459Z,6.49
2023-04-12T21:28:15.264Z,6.41
2023-04-12T21:30:44.771Z,6.37
2023-04-12T21:33:16.498Z,6.31
2023-04-12T21:35:43.142Z,6.25
2023-04-12T21:38:09.679Z,6.21
2023-04-12T21:40:36.821Z,6.15
2023-04-12T21:43:03.373Z,6.13
2023-04-12T21:45:30.012Z,6.01
2023-04-12T21:47:56.863Z,5.96
2023-04-12T21:50:23.570Z,5.92
2023-04-12T21:52:50.143Z,5.83
2023-04-12T21:55:16.807Z,5.83
2023-04-12T21:57:43.415Z,5.74
2023-04-12T22:00:10.640Z,5.72
2023-04-12T22:02:37.425Z,5.71
2023-04-12T22:05:04.424Z,5.70
2023-04-12T22:07:30.978Z,5.68
2023-04-12T22:09:59.652Z,5.73
2023-04-12T22:12:26.250Z,5.77
2023-04-12T22:14:52.925Z,5.77
2023-04-12T22:17:21.379Z,5.73
2023-04-12T22:19:48.255Z,5.71
2023-04-12T22:22:15.588Z,5.74
2023-04-12T22:24:42.641Z,5.77
2023-04-12T22:27:09.377Z,5.74
2023-04-12T22:29:37.759Z,5.74
2023-04-12T22:32:04.673Z,5.76
2023-04-12T22:34:32.445Z,5.74
2023-04-12T22:37:02.858Z,5.73
2023-04-12T22:39:31.651Z,5.67
2023-04-12T22:41:58.874Z,5.63
2023-04-12T22:44:26.953Z,5.55
2023-04-12T22:46:56.668Z,5.58
2023-04-12T22:49:28.081Z,5.64
2023-04-12T22:51:55.785Z,5.64
2023-04-12T22:54:23.578Z,5.67
2023-04-12T22:56:50.695Z,5.71
2023-04-12T22:59:18.827Z,5.75
2023-04-12T23:01:47.158Z,5.80
2023-04-12T23:04:14.808Z,5.80
2023-04-12T23:06:43.116Z,5.82
2023-04-12T23:09:11.118Z,5.84
2023-04-12T23:11:39.846Z,5.89
2023-04-12T23:14:08.023Z,5.92
2023-04-12T23:16:35.462Z,5.99
2023-04-12T23:19:03.999Z,6.01
2023-04-12T23:21:30.791Z,6.04
2023-04-12T23:23:57.536Z,6.04
2023-04-12T23:26:24.674Z,6.07
2023-04-12T23:28:51.653Z,6.13
2023-04-12T23:31:18.479Z,6.18
2023-04-12T23:33:46.081Z,6.17
2023-04-12T23:36:13.044Z,6.24
2023-04-12T23:38:40.719Z,6.27
2023-04-12T23:41:10.074Z,6.36
2023-04-12T23:43:37.101Z,6.41
2023-04-12T23:46:04.518Z,6.44
2023-04-12T23:48:32.363Z,6.47
2023-04-12T23:50:59.353Z,6.48
2023-04-12T23:53:25.979Z,6.47
2023-04-12T23:55:53.613Z,6.48
2023-04-12T23:58:21.087Z,6.49
